createdAt,value
2022-07-25T00:00:30.970Z,66.77
2022-07-25T00:05:37.775Z,66.78
2022-07-25T00:10:40.390Z,67.17
2022-07-25T00:15:42.738Z,67.37
2022-07-25T00:20:45.147Z,67.45
2022-07-25T00:25:47.439Z,67.79
2022-07-25T00:30:50.348Z,67.40
2022-07-25T00:35:52.644Z,67.79
2022-07-25T00:40:55.890Z,67.81
2022-07-25T00:45:59.267Z,68.06
2022-07-25T00:51:01.949Z,68.33
2022-07-25T00:56:05.953Z,67.96
2022-07-25T01:01:08.296Z,68.12
2022-07-25T01:06:10.631Z,68.09
2022-07-25T01:11:13.092Z,68.01
2022-07-25T01:16:15.583Z,68.41
2022-07-25T01:21:17.916Z,68.39
2022-07-25T01:26:20.185Z,68.15
2022-07-25T01:31:22.503Z,68.63
2022-07-25T01:36:24.839Z,68.60
2022-07-25T01:41:29.170Z,68.96
2022-07-25T01:46:31.553Z,68.68
2022-07-25T01:51:33.905Z,68.79
2022-07-25T01:56:36.282Z,69.37
2022-07-25T02:01:39.170Z,69.19
2022-07-25T02:06:44.249Z,69.61
2022-07-25T02:11:46.580Z,69.76
2022-07-25T02:16:48.934Z,70.02
2022-07-25T02:21:51.501Z,69.98
2022-07-25T02:26:53.774Z,70.06
2022-07-25T02:31:56.249Z,70.46
2022-07-25T02:36:58.602Z,70.44
2022-07-25T02:42:00.900Z,70.73
2022-07-25T02:47:03.457Z,70.85
2022-07-25T02:52:05.729Z,71.09
2022-07-25T02:57:08.026Z,71.32
2022-07-25T03:02:10.892Z,71.32
2022-07-25T03:07:13.234Z,71.41
2022-07-25T03:12:15.603Z,71.71
2022-07-25T03:17:18.437Z,71.31
2022-07-25T03:22:21.627Z,71.78
2022-07-25T03:27:23.965Z,71.55
2022-07-25T03:32:26.305Z,71.94
2022-07-25T03:37:28.666Z,71.83
2022-07-25T03:42:35.494Z,71.69
2022-07-25T03:47:38.186Z,71.09
2022-07-25T03:52:40.774Z,71.10
2022-07-25T03:57:43.467Z,71.23
2022-07-25T04:02:45.846Z,71.25
2022-07-25T04:07:48.219Z,71.16
2022-07-25T04:12:50.732Z,70.66
2022-07-25T04:17:53.004Z,70.53
2022-07-25T04:22:55.993Z,70.68
2022-07-25T04:27:58.403Z,70.58
2022-07-25T04:33:00.678Z,69.96
2022-07-25T04:38:02.984Z,69.99
2022-07-25T04:43:05.527Z,69.99
2022-07-25T04:48:08.035Z,69.84
2022-07-25T04:53:10.392Z,69.27
2022-07-25T04:58:12.695Z,69.90
2022-07-25T05:03:14.949Z,69.34
2022-07-25T05:08:17.398Z,69.11
2022-07-25T05:13:20.185Z,68.53
2022-07-25T05:18:22.583Z,68.70
2022-07-25T05:23:24.873Z,68.84
2022-07-25T05:28:27.208Z,69.04
2022-07-25T05:33:30.065Z,68.15
2022-07-25T05:38:32.420Z,67.96
2022-07-25T05:43:34.737Z,67.70
2022-07-25T05:48:40.202Z,67.75
2022-07-25T05:53:42.720Z,67.06
2022-07-25T05:58:45.162Z,67.24
2022-07-25T06:03:47.474Z,66.49
2022-07-25T06:08:49.866Z,67.05
2022-07-25T06:13:52.180Z,66.15
2022-07-25T06:18:55.077Z,65.04
2022-07-25T06:24:00.400Z,65.13
2022-07-25T06:29:02.884Z,63.87
2022-07-25T06:34:05.477Z,64.56
2022-07-25T06:39:08.070Z,63.98
2022-07-25T06:44:10.464Z,64.02
2022-07-25T06:49:13.067Z,63.84
2022-07-25T06:54:15.949Z,63.59
2022-07-25T06:59:18.314Z,62.85
2022-07-25T07:04:20.746Z,63.50
2022-07-25T07:09:23.091Z,63.95
2022-07-25T07:14:25.432Z,62.22
2022-07-25T07:19:27.696Z,62.85
2022-07-25T07:24:30.222Z,62.83
2022-07-25T07:29:32.608Z,61.49
2022-07-25T07:34:34.922Z,60.05
2022-07-25T07:39:37.270Z,59.56
2022-07-25T07:44:39.763Z,60.56
2022-07-25T07:49:43.373Z,60.08
2022-07-25T07:55:06.689Z,59.86
2022-07-25T08:00:13.507Z,59.12
2022-07-25T08:05:33.911Z,59.09
2022-07-25T08:10:38.577Z,59.24
2022-07-25T08:15:41.299Z,60.07
2022-07-25T08:20:43.728Z,60.40
2022-07-25T08:25:47.215Z,60.79
2022-07-25T08:30:49.582Z,61.03
2022-07-25T08:35:53.954Z,62.36
2022-07-25T08:40:57.539Z,62.70
2022-07-25T08:46:02.605Z,61.29
2022-07-25T08:51:05.167Z,60.89
2022-07-25T08:56:14.528Z,61.18
2022-07-25T09:01:17.353Z,60.07
2022-07-25T09:06:21.292Z,58.76
2022-07-25T09:11:37.462Z,58.76
2022-07-25T09:16:44.973Z,57.95
2022-07-25T09:22:06.060Z,58.37
2022-07-25T09:27:12.422Z,59.60
2022-07-25T09:32:20.646Z,59.02
2022-07-25T09:37:27.341Z,57.68
2022-07-25T09:42:33.907Z,57.17
2022-07-25T09:47:37.968Z,56.22
2022-07-25T09:52:40.661Z,55.76
2022-07-25T09:57:45.357Z,56.24
2022-07-25T10:02:49.296Z,56.23
2022-07-25T10:07:53.852Z,55.41
2022-07-25T10:13:00.349Z,55.50
2022-07-25T10:18:04.371Z,55.01
2022-07-25T10:23:19.737Z,54.68
2022-07-25T10:28:22.021Z,53.46
2022-07-25T10:33:25.488Z,53.82
2022-07-25T10:38:28.903Z,53.40
2022-07-25T10:43:37.659Z,53.56
2022-07-25T10:48:40.282Z,52.67
2022-07-25T10:53:44.126Z,53.14
2022-07-25T10:58:53.303Z,53.26
2022-07-25T11:03:59.305Z,52.89
2022-07-25T11:09:02.014Z,52.34
2022-07-25T11:14:05.643Z,51.36
2022-07-25T11:19:24.758Z,51.07
2022-07-25T11:24:45.266Z,51.71
2022-07-25T11:29:47.637Z,51.18
2022-07-25T11:34:53.501Z,50.80
2022-07-25T11:39:56.761Z,50.54
2022-07-25T11:44:59.728Z,50.08
2022-07-25T11:50:04.754Z,50.54
2022-07-25T11:55:09.354Z,49.82
2022-07-25T12:00:17.540Z,50.61
2022-07-25T12:05:22.197Z,50.39
2022-07-25T12:10:32.825Z,49.15
2022-07-25T12:15:40.821Z,50.20
2022-07-25T12:20:44.367Z,50.32
2022-07-25T12:25:47.677Z,49.35
2022-07-25T12:30:55.954Z,50.29
2022-07-25T12:36:02.089Z,49.24
2022-07-25T12:41:07.787Z,49.12
2022-07-25T12:46:10.256Z,49.46
2022-07-25T12:51:12.747Z,49.60
2022-07-25T12:56:16.153Z,49.96
2022-07-25T13:01:18.643Z,50.23
2022-07-25T13:06:21.121Z,49.90
2022-07-25T13:11:30.369Z,50.47
2022-07-25T13:16:34.253Z,49.49
2022-07-25T13:21:36.905Z,49.50
2022-07-25T13:26:39.649Z,49.45
2022-07-25T13:31:42.425Z,49.49
2022-07-25T13:36:45.139Z,49.67
2022-07-25T13:41:47.456Z,49.69
2022-07-25T13:46:59.093Z,49.72
2022-07-25T13:52:01.848Z,49.33
2022-07-25T13:57:04.771Z,49.48
2022-07-25T14:02:07.268Z,49.97
2022-07-25T14:07:09.821Z,49.19
2022-07-25T14:12:12.253Z,48.95
2022-07-25T14:17:14.650Z,49.13
2022-07-25T14:22:17.046Z,49.55
2022-07-25T14:27:19.462Z,49.49
2022-07-25T14:32:21.822Z,48.53
2022-07-25T14:37:24.140Z,49.03
2022-07-25T14:42:26.644Z,49.48
2022-07-25T14:47:28.943Z,49.69
2022-07-25T14:52:31.327Z,49.98
2022-07-25T14:57:33.726Z,49.21
2022-07-25T15:02:36.047Z,49.60
2022-07-25T15:07:38.454Z,50.19
2022-07-25T15:12:40.968Z,50.57
2022-07-25T15:17:43.373Z,50.78
2022-07-25T15:22:45.751Z,50.91
2022-07-25T15:27:48.082Z,51.80
2022-07-25T15:32:50.426Z,52.54
2022-07-25T15:37:53.003Z,52.86
2022-07-25T15:42:55.363Z,53.45
2022-07-25T15:47:57.722Z,54.12
2022-07-25T15:53:00.153Z,54.38
2022-07-25T15:58:02.592Z,54.72
2022-07-25T16:03:05.212Z,55.48
2022-07-25T16:08:11.416Z,55.33
2022-07-25T16:13:13.823Z,55.56
2022-07-25T16:18:16.467Z,55.81
2022-07-25T16:23:18.804Z,55.46
2022-07-25T16:28:21.801Z,56.08
2022-07-25T16:33:24.579Z,56.01
2022-07-25T16:38:29.064Z,56.11
2022-07-25T16:43:31.437Z,56.65
2022-07-25T16:48:38.365Z,56.87
2022-07-25T16:53:40.748Z,56.71
2022-07-25T16:58:43.221Z,56.36
2022-07-25T17:03:45.735Z,56.64
2022-07-25T17:08:48.208Z,56.99
2022-07-25T17:13:50.589Z,56.23
2022-07-25T17:18:52.923Z,57.00
2022-07-25T17:23:56.708Z,57.34
2022-07-25T17:29:02.345Z,56.88
2022-07-25T17:34:04.964Z,57.29
2022-07-25T17:39:07.647Z,57.21
2022-07-25T17:44:12.262Z,57.14
2022-07-25T17:49:15.036Z,57.13
2022-07-25T17:54:17.543Z,57.78
2022-07-25T17:59:19.952Z,57.73
2022-07-25T18:04:25.400Z,58.51
2022-07-25T18:09:27.870Z,58.44
2022-07-25T18:14:30.806Z,58.55
2022-07-25T18:19:33.199Z,58.78
2022-07-25T18:24:35.574Z,58.96
2022-07-25T18:29:38.751Z,59.25
2022-07-25T18:34:41.096Z,59.44
2022-07-25T18:39:44.392Z,60.27
2022-07-25T18:44:46.743Z,60.23
2022-07-25T18:49:50.331Z,60.81
2022-07-25T18:54:52.825Z,60.91
2022-07-25T18:59:59.439Z,61.43
2022-07-25T19:05:06.667Z,61.62
2022-07-25T19:10:10.106Z,61.98
2022-07-25T19:15:13.311Z,62.12
2022-07-25T19:20:15.806Z,62.23
2022-07-25T19:25:18.413Z,62.25
2022-07-25T19:30:21.719Z,62.25
2022-07-25T19:35:26.300Z,62.61
2022-07-25T19:40:35.010Z,63.46
2022-07-25T19:45:39.819Z,63.10
2022-07-25T19:50:48.486Z,63.63
2022-07-25T19:55:59.857Z,64.09
2022-07-25T20:01:02.582Z,63.78
2022-07-25T20:06:08.525Z,64.31
2022-07-25T20:11:11.415Z,64.25
2022-07-25T20:16:13.794Z,64.59
2022-07-25T20:21:18.248Z,65.03
2022-07-25T20:26:20.601Z,65.10
2022-07-25T20:31:24.661Z,65.14
2022-07-25T20:36:27.138Z,65.47
2022-07-25T20:41:29.743Z,65.28
2022-07-25T20:46:36.220Z,65.52
2022-07-25T20:51:41.844Z,65.55
2022-07-25T20:56:45.324Z,66.02
2022-07-25T21:01:47.765Z,66.22
2022-07-25T21:06:50.126Z,66.11
2022-07-25T21:11:52.462Z,66.35
2022-07-25T21:16:54.920Z,66.27
2022-07-25T21:21:57.292Z,66.31
2022-07-25T21:26:59.687Z,66.71
2022-07-25T21:32:02.080Z,66.62
2022-07-25T21:37:04.420Z,67.15
2022-07-25T21:42:10.078Z,67.30
2022-07-25T21:47:13.507Z,67.49
2022-07-25T21:52:16.388Z,67.34
2022-07-25T21:57:18.870Z,67.76
2022-07-25T22:02:21.239Z,67.60
2022-07-25T22:07:25.436Z,68.14
2022-07-25T22:12:27.853Z,68.38
2022-07-25T22:17:48.526Z,68.35
2022-07-25T22:22:52.191Z,68.56
2022-07-25T22:27:54.490Z,68.43
2022-07-25T22:32:56.750Z,68.65
2022-07-25T22:37:59.072Z,68.84
2022-07-25T22:43:01.479Z,69.16
2022-07-25T22:48:04.050Z,69.55
2022-07-25T22:53:06.926Z,69.26
2022-07-25T22:58:09.421Z,69.59
2022-07-25T23:03:11.736Z,69.25
2022-07-25T23:08:14.278Z,69.63
2022-07-25T23:13:19.251Z,69.63
2022-07-25T23:18:21.577Z,70.01
2022-07-25T23:23:23.924Z,70.17
2022-07-25T23:28:26.276Z,70.29
2022-07-25T23:33:28.613Z,70.12
2022-07-25T23:38:31.590Z,70.38
2022-07-25T23:43:48.281Z,70.85
2022-07-25T23:48:56.727Z,70.34
2022-07-25T23:53:59.722Z,70.73
2022-07-25T23:59:02.086Z,71.27
